sensor_id;sensor_type;location;lat;lon;timestamp;P1;durP1;ratioP1;P2;durP2;ratioP2
3601;SDS011;1815;50.950;6.920;2024-01-25T00:01:12;23.13;;;5.23;;
3601;SDS011;1815;50.950;6.920;2024-01-25T00:03:38;20.17;;;5.87;;
3601;SDS011;1815;50.950;6.920;2024-01-25T00:06:07;22.53;;;4.40;;
3601;SDS011;1815;50.950;6.920;2024-01-25T00:08:33;19.02;;;4.53;;
3601;SDS011;1815;50.950;6.920;2024-01-25T00:11:00;23.20;;;5.40;;
3601;SDS011;1815;50.950;6.920;2024-01-25T00:13:29;18.70;;;5.90;;
3601;SDS011;1815;50.950;6.920;2024-01-25T00:15:55;19.27;;;5.30;;
3601;SDS011;1815;50.950;6.920;2024-01-25T00:18:20;24.93;;;6.23;;
3601;SDS011;1815;50.950;6.920;2024-01-25T00:20:46;24.10;;;5.93;;
3601;SDS011;1815;50.950;6.920;2024-01-25T00:23:12;19.47;;;5.00;;
3601;SDS011;1815;50.950;6.920;2024-01-25T00:25:38;25.37;;;5.90;;
3601;SDS011;1815;50.950;6.920;2024-01-25T00:28:03;27.40;;;5.37;;
3601;SDS011;1815;50.950;6.920;2024-01-25T00:30:29;23.90;;;5.50;;
3601;SDS011;1815;50.950;6.920;2024-01-25T00:32:58;16.83;;;5.60;;
3601;SDS011;1815;50.950;6.920;2024-01-25T00:35:24;19.08;;;5.30;;
3601;SDS011;1815;50.950;6.920;2024-01-25T00:37:50;29.02;;;7.18;;
3601;SDS011;1815;50.950;6.920;2024-01-25T00:40:16;21.25;;;4.65;;
3601;SDS011;1815;50.950;6.920;2024-01-25T00:42:44;20.98;;;5.10;;
3601;SDS011;1815;50.950;6.920;2024-01-25T00:45:17;25.33;;;4.93;;
3601;SDS011;1815;50.950;6.920;2024-01-25T00:47:44;20.00;;;5.05;;
3601;SDS011;1815;50.950;6.920;2024-01-25T00:50:10;21.60;;;5.40;;
3601;SDS011;1815;50.950;6.920;2024-01-25T00:52:36;20.88;;;7.07;;
3601;SDS011;1815;50.950;6.920;2024-01-25T00:55:03;20.67;;;5.63;;
3601;SDS011;1815;50.950;6.920;2024-01-25T00:57:29;30.92;;;6.72;;
3601;SDS011;1815;50.950;6.920;2024-01-25T00:59:55;23.83;;;6.50;;
3601;SDS011;1815;50.950;6.920;2024-01-25T01:02:21;21.05;;;5.30;;
3601;SDS011;1815;50.950;6.920;2024-01-25T01:04:48;22.60;;;6.47;;
3601;SDS011;1815;50.950;6.920;2024-01-25T01:07:14;17.75;;;4.88;;
3601;SDS011;1815;50.950;6.920;2024-01-25T01:09:40;20.10;;;7.00;;
3601;SDS011;1815;50.950;6.920;2024-01-25T01:12:06;21.90;;;5.53;;
3601;SDS011;1815;50.950;6.920;2024-01-25T01:14:32;18.23;;;5.00;;
3601;SDS011;1815;50.950;6.920;2024-01-25T01:16:58;21.63;;;5.80;;
3601;SDS011;1815;50.950;6.920;2024-01-25T01:19:23;17.53;;;5.33;;
3601;SDS011;1815;50.950;6.920;2024-01-25T01:21:49;23.33;;;5.30;;
3601;SDS011;1815;50.950;6.920;2024-01-25T01:24:15;19.17;;;4.73;;
3601;SDS011;1815;50.950;6.920;2024-01-25T01:26:40;20.70;;;6.07;;
3601;SDS011;1815;50.950;6.920;2024-01-25T01:29:07;19.42;;;5.47;;
3601;SDS011;1815;50.950;6.920;2024-01-25T01:31:33;17.45;;;4.45;;
3601;SDS011;1815;50.950;6.920;2024-01-25T01:33:59;23.90;;;6.47;;
3601;SDS011;1815;50.950;6.920;2024-01-25T01:36:25;24.98;;;6.15;;
3601;SDS011;1815;50.950;6.920;2024-01-25T01:38:51;23.92;;;5.97;;
3601;SDS011;1815;50.950;6.920;2024-01-25T01:41:17;25.20;;;7.73;;
3601;SDS011;1815;50.950;6.920;2024-01-25T01:43:42;23.90;;;5.07;;
3601;SDS011;1815;50.950;6.920;2024-01-25T01:46:12;20.80;;;5.17;;
3601;SDS011;1815;50.950;6.920;2024-01-25T01:48:50;21.77;;;5.10;;
3601;SDS011;1815;50.950;6.920;2024-01-25T01:51:15;21.43;;;5.57;;
3601;SDS011;1815;50.950;6.920;2024-01-25T01:53:42;24.70;;;5.53;;
3601;SDS011;1815;50.950;6.920;2024-01-25T01:56:08;30.35;;;6.57;;
3601;SDS011;1815;50.950;6.920;2024-01-25T01:58:35;14.82;;;4.03;;
3601;SDS011;1815;50.950;6.920;2024-01-25T02:01:01;21.75;;;5.20;;
3601;SDS011;1815;50.950;6.920;2024-01-25T02:03:27;25.85;;;5.47;;
3601;SDS011;1815;50.950;6.920;2024-01-25T02:05:53;19.60;;;5.47;;
3601;SDS011;1815;50.950;6.920;2024-01-25T02:08:19;18.77;;;4.90;;
3601;SDS011;1815;50.950;6.920;2024-01-25T02:10:45;27.40;;;6.90;;
3601;SDS011;1815;50.950;6.920;2024-01-25T02:13:11;22.50;;;6.27;;
3601;SDS011;1815;50.950;6.920;2024-01-25T02:15:37;21.30;;;4.40;;
3601;SDS011;1815;50.950;6.920;2024-01-25T02:18:02;19.03;;;4.80;;
3601;SDS011;1815;50.950;6.920;2024-01-25T02:20:28;17.60;;;4.33;;
3601;SDS011;1815;50.950;6.920;2024-01-25T02:22:54;17.17;;;4.50;;
3601;SDS011;1815;50.950;6.920;2024-01-25T02:25:19;25.33;;;5.90;;
3601;SDS011;1815;50.950;6.920;2024-01-25T02:27:45;20.10;;;4.77;;
3601;SDS011;1815;50.950;6.920;2024-01-25T02:30:11;19.07;;;5.57;;
3601;SDS011;1815;50.950;6.920;2024-01-25T02:32:36;22.43;;;5.33;;
3601;SDS011;1815;50.950;6.920;2024-01-25T02:35:02;25.50;;;5.07;;
3601;SDS011;1815;50.950;6.920;2024-01-25T02:37:28;26.83;;;5.10;;
3601;SDS011;1815;50.950;6.920;2024-01-25T02:39:54;23.60;;;4.20;;
3601;SDS011;1815;50.950;6.920;2024-01-25T02:42:19;14.30;;;4.40;;
3601;SDS011;1815;50.950;6.920;2024-01-25T02:44:45;16.20;;;4.50;;
3601;SDS011;1815;50.950;6.920;2024-01-25T02:47:11;25.40;;;4.73;;
3601;SDS011;1815;50.950;6.920;2024-01-25T02:49:37;24.70;;;5.03;;
3601;SDS011;1815;50.950;6.920;2024-01-25T02:52:03;23.80;;;6.10;;
3601;SDS011;1815;50.950;6.920;2024-01-25T02:54:29;23.70;;;5.38;;
3601;SDS011;1815;50.950;6.920;2024-01-25T02:57:16;32.00;;;6.50;;
3601;SDS011;1815;50.950;6.920;2024-01-25T02:59:43;19.10;;;3.70;;
3601;SDS011;1815;50.950;6.920;2024-01-25T03:02:09;22.00;;;5.40;;
3601;SDS011;1815;50.950;6.920;2024-01-25T03:04:35;19.70;;;4.78;;
3601;SDS011;1815;50.950;6.920;2024-01-25T03:07:01;23.00;;;3.93;;
3601;SDS011;1815;50.950;6.920;2024-01-25T03:09:27;23.08;;;6.07;;
3601;SDS011;1815;50.950;6.920;2024-01-25T03:11:53;20.00;;;4.93;;
3601;SDS011;1815;50.950;6.920;2024-01-25T03:14:18;27.93;;;5.20;;
3601;SDS011;1815;50.950;6.920;2024-01-25T03:16:44;25.57;;;7.37;;
3601;SDS011;1815;50.950;6.920;2024-01-25T03:19:10;21.07;;;6.10;;
3601;SDS011;1815;50.950;6.920;2024-01-25T03:21:36;24.05;;;6.82;;
3601;SDS011;1815;50.950;6.920;2024-01-25T03:24:02;17.23;;;5.33;;
3601;SDS011;1815;50.950;6.920;2024-01-25T03:26:27;20.40;;;6.20;;
3601;SDS011;1815;50.950;6.920;2024-01-25T03:28:53;19.90;;;5.03;;
3601;SDS011;1815;50.950;6.920;2024-01-25T03:31:19;20.90;;;5.70;;
3601;SDS011;1815;50.950;6.920;2024-01-25T03:33:45;18.87;;;5.73;;
3601;SDS011;1815;50.950;6.920;2024-01-25T03:36:13;19.37;;;5.17;;
3601;SDS011;1815;50.950;6.920;2024-01-25T03:38:40;25.42;;;6.78;;
3601;SDS011;1815;50.950;6.920;2024-01-25T03:41:06;26.97;;;4.73;;
3601;SDS011;1815;50.950;6.920;2024-01-25T03:43:32;26.37;;;5.93;;
3601;SDS011;1815;50.950;6.920;2024-01-25T03:45:58;26.47;;;6.40;;
3601;SDS011;1815;50.950;6.920;2024-01-25T03:48:23;19.70;;;5.00;;
3601;SDS011;1815;50.950;6.920;2024-01-25T03:50:49;25.20;;;8.43;;
3601;SDS011;1815;50.950;6.920;2024-01-25T03:53:15;25.80;;;6.53;;
3601;SDS011;1815;50.950;6.920;2024-01-25T03:55:40;22.73;;;5.93;;
3601;SDS011;1815;50.950;6.920;2024-01-25T03:58:06;26.37;;;5.93;;
3601;SDS011;1815;50.950;6.920;2024-01-25T04:00:32;19.43;;;4.87;;
3601;SDS011;1815;50.950;6.920;2024-01-25T04:02:58;26.93;;;4.93;;
3601;SDS011;1815;50.950;6.920;2024-01-25T04:05:23;20.93;;;4.67;;
3601;SDS011;1815;50.950;6.920;2024-01-25T04:07:51;22.73;;;6.25;;
3601;SDS011;1815;50.950;6.920;2024-01-25T04:10:17;28.37;;;5.87;;
3601;SDS011;1815;50.950;6.920;2024-01-25T04:12:43;16.33;;;5.07;;
3601;SDS011;1815;50.950;6.920;2024-01-25T04:15:08;19.47;;;4.50;;
3601;SDS011;1815;50.950;6.920;2024-01-25T04:17:34;19.48;;;4.50;;
3601;SDS011;1815;50.950;6.920;2024-01-25T04:20:00;24.97;;;5.60;;
3601;SDS011;1815;50.950;6.920;2024-01-25T04:22:26;24.70;;;5.73;;
3601;SDS011;1815;50.950;6.920;2024-01-25T04:24:52;25.20;;;5.30;;
3601;SDS011;1815;50.950;6.920;2024-01-25T04:27:17;14.47;;;5.50;;
3601;SDS011;1815;50.950;6.920;2024-01-25T04:29:43;18.77;;;5.90;;
3601;SDS011;1815;50.950;6.920;2024-01-25T04:32:09;29.03;;;7.37;;
3601;SDS011;1815;50.950;6.920;2024-01-25T04:34:35;24.30;;;4.90;;
3601;SDS011;1815;50.950;6.920;2024-01-25T04:37:01;22.98;;;6.15;;
3601;SDS011;1815;50.950;6.920;2024-01-25T04:39:27;24.90;;;5.47;;
3601;SDS011;1815;50.950;6.920;2024-01-25T04:41:53;22.90;;;5.00;;
3601;SDS011;1815;50.950;6.920;2024-01-25T04:44:18;22.10;;;5.77;;
3601;SDS011;1815;50.950;6.920;2024-01-25T04:46:44;24.00;;;5.07;;
3601;SDS011;1815;50.950;6.920;2024-01-25T04:49:10;19.25;;;4.32;;
3601;SDS011;1815;50.950;6.920;2024-01-25T04:51:36;20.00;;;4.70;;
3601;SDS011;1815;50.950;6.920;2024-01-25T04:54:02;19.13;;;6.20;;
3601;SDS011;1815;50.950;6.920;2024-01-25T04:56:28;17.13;;;4.37;;
3601;SDS011;1815;50.950;6.920;2024-01-25T04:58:53;21.60;;;5.23;;
3601;SDS011;1815;50.950;6.920;2024-01-25T05:01:19;18.85;;;4.40;;
3601;SDS011;1815;50.950;6.920;2024-01-25T05:03:45;19.40;;;4.60;;
3601;SDS011;1815;50.950;6.920;2024-01-25T05:06:11;19.27;;;5.23;;
3601;SDS011;1815;50.950;6.920;2024-01-25T05:08:38;20.43;;;5.40;;
3601;SDS011;1815;50.950;6.920;2024-01-25T05:11:04;20.02;;;4.15;;
3601;SDS011;1815;50.950;6.920;2024-01-25T05:13:29;20.10;;;4.90;;
3601;SDS011;1815;50.950;6.920;2024-01-25T05:15:55;14.53;;;4.20;;
3601;SDS011;1815;50.950;6.920;2024-01-25T05:18:21;22.23;;;4.40;;
3601;SDS011;1815;50.950;6.920;2024-01-25T05:20:46;17.00;;;4.40;;
3601;SDS011;1815;50.950;6.920;2024-01-25T05:23:12;16.87;;;4.60;;
3601;SDS011;1815;50.950;6.920;2024-01-25T05:25:38;19.23;;;4.40;;
3601;SDS011;1815;50.950;6.920;2024-01-25T05:28:04;24.80;;;5.00;;
3601;SDS011;1815;50.950;6.920;2024-01-25T05:30:30;17.90;;;5.82;;
3601;SDS011;1815;50.950;6.920;2024-01-25T05:32:55;23.30;;;6.00;;
3601;SDS011;1815;50.950;6.920;2024-01-25T05:35:21;21.80;;;5.63;;
3601;SDS011;1815;50.950;6.920;2024-01-25T05:37:48;15.88;;;4.00;;
3601;SDS011;1815;50.950;6.920;2024-01-25T05:40:14;26.17;;;6.07;;
3601;SDS011;1815;50.950;6.920;2024-01-25T05:42:40;18.13;;;6.53;;
3601;SDS011;1815;50.950;6.920;2024-01-25T05:45:06;19.60;;;4.87;;
3601;SDS011;1815;50.950;6.920;2024-01-25T05:47:32;16.52;;;3.95;;
3601;SDS011;1815;50.950;6.920;2024-01-25T05:49:59;17.55;;;5.53;;
3601;SDS011;1815;50.950;6.920;2024-01-25T05:52:25;21.23;;;4.67;;
3601;SDS011;1815;50.950;6.920;2024-01-25T05:54:51;21.90;;;5.07;;
3601;SDS011;1815;50.950;6.920;2024-01-25T05:57:17;19.33;;;6.27;;
3601;SDS011;1815;50.950;6.920;2024-01-25T05:59:44;21.58;;;5.95;;
3601;SDS011;1815;50.950;6.920;2024-01-25T06:02:09;28.80;;;5.17;;
3601;SDS011;1815;50.950;6.920;2024-01-25T06:04:35;21.30;;;5.47;;
3601;SDS011;1815;50.950;6.920;2024-01-25T06:07:01;15.03;;;3.87;;
3601;SDS011;1815;50.950;6.920;2024-01-25T06:09:27;17.45;;;4.53;;
3601;SDS011;1815;50.950;6.920;2024-01-25T06:11:53;14.83;;;4.67;;
3601;SDS011;1815;50.950;6.920;2024-01-25T06:14:19;18.45;;;4.55;;
3601;SDS011;1815;50.950;6.920;2024-01-25T06:16:45;22.97;;;6.40;;
3601;SDS011;1815;50.950;6.920;2024-01-25T06:19:11;17.77;;;4.47;;
3601;SDS011;1815;50.950;6.920;2024-01-25T06:21:37;22.70;;;4.90;;
3601;SDS011;1815;50.950;6.920;2024-01-25T06:24:05;20.50;;;5.00;;
3601;SDS011;1815;50.950;6.920;2024-01-25T06:26:31;19.60;;;4.15;;
3601;SDS011;1815;50.950;6.920;2024-01-25T06:28:58;19.60;;;4.63;;
3601;SDS011;1815;50.950;6.920;2024-01-25T06:31:26;19.90;;;5.07;;
3601;SDS011;1815;50.950;6.920;2024-01-25T06:33:52;28.52;;;4.88;;
3601;SDS011;1815;50.950;6.920;2024-01-25T06:36:19;16.43;;;4.40;;
3601;SDS011;1815;50.950;6.920;2024-01-25T06:38:45;16.20;;;4.70;;
3601;SDS011;1815;50.950;6.920;2024-01-25T06:41:10;20.33;;;4.57;;
3601;SDS011;1815;50.950;6.920;2024-01-25T06:43:36;14.43;;;4.60;;
3601;SDS011;1815;50.950;6.920;2024-01-25T06:46:02;16.00;;;4.87;;
3601;SDS011;1815;50.950;6.920;2024-01-25T06:48:28;21.23;;;5.80;;
3601;SDS011;1815;50.950;6.920;2024-01-25T06:50:53;20.20;;;5.10;;
3601;SDS011;1815;50.950;6.920;2024-01-25T06:53:20;17.70;;;4.70;;
3601;SDS011;1815;50.950;6.920;2024-01-25T06:55:46;19.83;;;4.60;;
3601;SDS011;1815;50.950;6.920;2024-01-25T06:58:12;18.87;;;4.37;;
3601;SDS011;1815;50.950;6.920;2024-01-25T07:00:38;17.52;;;3.13;;
3601;SDS011;1815;50.950;6.920;2024-01-25T07:03:05;15.13;;;3.33;;
3601;SDS011;1815;50.950;6.920;2024-01-25T07:05:30;15.70;;;3.58;;
3601;SDS011;1815;50.950;6.920;2024-01-25T07:07:58;13.98;;;5.25;;
3601;SDS011;1815;50.950;6.920;2024-01-25T07:10:24;17.33;;;4.07;;
3601;SDS011;1815;50.950;6.920;2024-01-25T07:12:50;12.83;;;4.23;;
3601;SDS011;1815;50.950;6.920;2024-01-25T07:15:17;10.90;;;3.75;;
3601;SDS011;1815;50.950;6.920;2024-01-25T07:17:43;18.27;;;4.07;;
3601;SDS011;1815;50.950;6.920;2024-01-25T07:20:09;19.93;;;5.00;;
3601;SDS011;1815;50.950;6.920;2024-01-25T07:22:35;15.90;;;4.97;;
3601;SDS011;1815;50.950;6.920;2024-01-25T07:25:01;16.70;;;6.03;;
3601;SDS011;1815;50.950;6.920;2024-01-25T07:27:27;18.88;;;4.95;;
3601;SDS011;1815;50.950;6.920;2024-01-25T07:29:53;20.23;;;4.57;;
3601;SDS011;1815;50.950;6.920;2024-01-25T07:32:19;15.40;;;4.57;;
3601;SDS011;1815;50.950;6.920;2024-01-25T07:34:45;15.40;;;4.47;;
3601;SDS011;1815;50.950;6.920;2024-01-25T07:37:11;15.77;;;4.80;;
3601;SDS011;1815;50.950;6.920;2024-01-25T07:39:38;20.13;;;6.28;;
3601;SDS011;1815;50.950;6.920;2024-01-25T07:42:04;15.38;;;5.13;;
3601;SDS011;1815;50.950;6.920;2024-01-25T07:44:30;24.33;;;5.40;;
3601;SDS011;1815;50.950;6.920;2024-01-25T07:46:55;15.23;;;5.30;;
3601;SDS011;1815;50.950;6.920;2024-01-25T07:49:21;26.00;;;5.93;;
3601;SDS011;1815;50.950;6.920;2024-01-25T07:51:48;24.95;;;6.82;;
3601;SDS011;1815;50.950;6.920;2024-01-25T07:54:14;14.57;;;5.57;;
3601;SDS011;1815;50.950;6.920;2024-01-25T07:56:40;21.40;;;7.75;;
3601;SDS011;1815;50.950;6.920;2024-01-25T07:59:05;17.23;;;5.50;;
3601;SDS011;1815;50.950;6.920;2024-01-25T08:01:32;14.88;;;5.10;;
3601;SDS011;1815;50.950;6.920;2024-01-25T08:03:58;21.03;;;6.13;;
3601;SDS011;1815;50.950;6.920;2024-01-25T08:06:25;20.55;;;6.82;;
3601;SDS011;1815;50.950;6.920;2024-01-25T08:08:52;18.35;;;5.90;;
3601;SDS011;1815;50.950;6.920;2024-01-25T08:11:18;22.07;;;6.00;;
3601;SDS011;1815;50.950;6.920;2024-01-25T08:13:45;19.00;;;5.30;;
3601;SDS011;1815;50.950;6.920;2024-01-25T08:16:12;18.35;;;6.80;;
3601;SDS011;1815;50.950;6.920;2024-01-25T08:18:39;24.83;;;6.10;;
3601;SDS011;1815;50.950;6.920;2024-01-25T08:21:05;24.35;;;7.70;;
3601;SDS011;1815;50.950;6.920;2024-01-25T08:23:31;21.10;;;7.18;;
3601;SDS011;1815;50.950;6.920;2024-01-25T08:25:57;25.60;;;7.20;;
3601;SDS011;1815;50.950;6.920;2024-01-25T08:28:23;24.20;;;6.37;;
3601;SDS011;1815;50.950;6.920;2024-01-25T08:30:48;29.60;;;6.90;;
3601;SDS011;1815;50.950;6.920;2024-01-25T08:33:15;24.73;;;6.37;;
3601;SDS011;1815;50.950;6.920;2024-01-25T08:35:41;25.08;;;7.95;;
3601;SDS011;1815;50.950;6.920;2024-01-25T08:38:07;23.60;;;6.80;;
3601;SDS011;1815;50.950;6.920;2024-01-25T08:40:33;28.77;;;8.70;;
3601;SDS011;1815;50.950;6.920;2024-01-25T08:42:59;25.73;;;6.47;;
3601;SDS011;1815;50.950;6.920;2024-01-25T08:45:24;24.90;;;7.90;;
3601;SDS011;1815;50.950;6.920;2024-01-25T08:47:50;23.50;;;6.80;;
3601;SDS011;1815;50.950;6.920;2024-01-25T08:50:17;24.58;;;6.40;;
3601;SDS011;1815;50.950;6.920;2024-01-25T08:52:43;27.47;;;8.07;;
3601;SDS011;1815;50.950;6.920;2024-01-25T08:55:09;29.77;;;8.10;;
3601;SDS011;1815;50.950;6.920;2024-01-25T08:57:35;29.70;;;9.73;;
3601;SDS011;1815;50.950;6.920;2024-01-25T09:00:01;27.42;;;7.75;;
3601;SDS011;1815;50.950;6.920;2024-01-25T09:02:27;27.38;;;8.02;;
3601;SDS011;1815;50.950;6.920;2024-01-25T09:04:55;22.27;;;6.85;;
3601;SDS011;1815;50.950;6.920;2024-01-25T09:07:21;26.27;;;7.53;;
3601;SDS011;1815;50.950;6.920;2024-01-25T09:09:47;30.73;;;8.40;;
3601;SDS011;1815;50.950;6.920;2024-01-25T09:12:14;24.55;;;8.60;;
3601;SDS011;1815;50.950;6.920;2024-01-25T09:14:41;23.02;;;8.55;;
3601;SDS011;1815;50.950;6.920;2024-01-25T09:17:07;27.85;;;9.55;;
3601;SDS011;1815;50.950;6.920;2024-01-25T09:19:34;28.92;;;9.02;;
3601;SDS011;1815;50.950;6.920;2024-01-25T09:22:00;23.03;;;8.50;;
3601;SDS011;1815;50.950;6.920;2024-01-25T09:24:29;21.70;;;9.82;;
3601;SDS011;1815;50.950;6.920;2024-01-25T09:26:56;22.13;;;8.80;;
3601;SDS011;1815;50.950;6.920;2024-01-25T09:29:24;26.73;;;11.25;;
3601;SDS011;1815;50.950;6.920;2024-01-25T09:31:50;21.97;;;9.57;;
3601;SDS011;1815;50.950;6.920;2024-01-25T09:34:15;20.50;;;7.50;;
3601;SDS011;1815;50.950;6.920;2024-01-25T09:36:41;28.30;;;8.37;;
3601;SDS011;1815;50.950;6.920;2024-01-25T09:39:07;28.13;;;9.90;;
3601;SDS011;1815;50.950;6.920;2024-01-25T09:41:35;24.55;;;10.25;;
3601;SDS011;1815;50.950;6.920;2024-01-25T09:44:01;21.10;;;7.87;;
3601;SDS011;1815;50.950;6.920;2024-01-25T09:46:28;23.48;;;9.57;;
3601;SDS011;1815;50.950;6.920;2024-01-25T09:48:54;34.45;;;9.27;;
3601;SDS011;1815;50.950;6.920;2024-01-25T09:51:20;24.43;;;11.83;;
3601;SDS011;1815;50.950;6.920;2024-01-25T09:53:48;24.07;;;7.90;;
3601;SDS011;1815;50.950;6.920;2024-01-25T09:56:14;22.10;;;8.98;;
3601;SDS011;1815;50.950;6.920;2024-01-25T09:58:45;19.83;;;9.37;;
3601;SDS011;1815;50.950;6.920;2024-01-25T10:01:12;19.73;;;8.47;;
3601;SDS011;1815;50.950;6.920;2024-01-25T10:03:39;27.40;;;8.32;;
3601;SDS011;1815;50.950;6.920;2024-01-25T10:06:07;21.87;;;8.70;;
3601;SDS011;1815;50.950;6.920;2024-01-25T10:08:33;26.03;;;9.50;;
3601;SDS011;1815;50.950;6.920;2024-01-25T10:10:59;24.50;;;8.27;;
3601;SDS011;1815;50.950;6.920;2024-01-25T10:13:26;27.30;;;8.93;;
3601;SDS011;1815;50.950;6.920;2024-01-25T10:15:53;21.33;;;10.13;;
3601;SDS011;1815;50.950;6.920;2024-01-25T10:18:19;29.30;;;10.20;;
3601;SDS011;1815;50.950;6.920;2024-01-25T10:20:47;24.33;;;9.33;;
3601;SDS011;1815;50.950;6.920;2024-01-25T10:23:12;30.20;;;10.33;;
3601;SDS011;1815;50.950;6.920;2024-01-25T10:25:38;22.13;;;8.43;;
3601;SDS011;1815;50.950;6.920;2024-01-25T10:28:05;18.67;;;8.03;;
3601;SDS011;1815;50.950;6.920;2024-01-25T10:30:31;26.80;;;8.17;;
3601;SDS011;1815;50.950;6.920;2024-01-25T10:33:00;23.20;;;9.57;;
3601;SDS011;1815;50.950;6.920;2024-01-25T10:35:26;24.90;;;9.73;;
3601;SDS011;1815;50.950;6.920;2024-01-25T10:37:53;23.87;;;8.17;;
3601;SDS011;1815;50.950;6.920;2024-01-25T10:40:19;21.27;;;8.47;;
3601;SDS011;1815;50.950;6.920;2024-01-25T10:42:46;23.27;;;10.13;;
3601;SDS011;1815;50.950;6.920;2024-01-25T10:45:12;21.37;;;8.17;;
3601;SDS011;1815;50.950;6.920;2024-01-25T10:47:38;26.13;;;8.50;;
3601;SDS011;1815;50.950;6.920;2024-01-25T10:50:06;23.27;;;8.53;;
3601;SDS011;1815;50.950;6.920;2024-01-25T10:52:37;26.87;;;9.27;;
3601;SDS011;1815;50.950;6.920;2024-01-25T10:55:04;20.70;;;8.17;;
3601;SDS011;1815;50.950;6.920;2024-01-25T10:57:36;23.60;;;8.10;;
3601;SDS011;1815;50.950;6.920;2024-01-25T11:00:06;15.98;;;6.80;;
3601;SDS011;1815;50.950;6.920;2024-01-25T11:02:35;19.53;;;7.27;;
3601;SDS011;1815;50.950;6.920;2024-01-25T11:05:01;26.23;;;8.00;;
3601;SDS011;1815;50.950;6.920;2024-01-25T11:07:28;23.50;;;7.97;;
3601;SDS011;1815;50.950;6.920;2024-01-25T11:09:54;26.47;;;9.50;;
3601;SDS011;1815;50.950;6.920;2024-01-25T11:12:20;27.47;;;9.27;;
3601;SDS011;1815;50.950;6.920;2024-01-25T11:14:53;20.70;;;9.57;;
3601;SDS011;1815;50.950;6.920;2024-01-25T11:17:21;25.33;;;7.97;;
3601;SDS011;1815;50.950;6.920;2024-01-25T11:19:50;22.07;;;8.63;;
3601;SDS011;1815;50.950;6.920;2024-01-25T11:22:16;16.67;;;6.60;;
3601;SDS011;1815;50.950;6.920;2024-01-25T11:24:42;25.40;;;12.30;;
3601;SDS011;1815;50.950;6.920;2024-01-25T11:27:08;18.33;;;10.10;;
3601;SDS011;1815;50.950;6.920;2024-01-25T11:29:35;31.83;;;10.50;;
3601;SDS011;1815;50.950;6.920;2024-01-25T11:32:00;26.67;;;9.07;;
3601;SDS011;1815;50.950;6.920;2024-01-25T11:34:29;22.80;;;8.63;;
3601;SDS011;1815;50.950;6.920;2024-01-25T11:36:56;22.97;;;7.43;;
3601;SDS011;1815;50.950;6.920;2024-01-25T11:39:25;22.30;;;8.27;;
3601;SDS011;1815;50.950;6.920;2024-01-25T11:41:51;19.00;;;7.50;;
3601;SDS011;1815;50.950;6.920;2024-01-25T11:44:17;26.47;;;8.93;;
3601;SDS011;1815;50.950;6.920;2024-01-25T11:46:43;24.07;;;7.77;;
3601;SDS011;1815;50.950;6.920;2024-01-25T11:49:09;20.90;;;8.10;;
3601;SDS011;1815;50.950;6.920;2024-01-25T11:51:34;25.33;;;7.40;;
3601;SDS011;1815;50.950;6.920;2024-01-25T11:54:00;22.93;;;7.57;;
3601;SDS011;1815;50.950;6.920;2024-01-25T11:56:26;28.10;;;9.27;;
3601;SDS011;1815;50.950;6.920;2024-01-25T11:58:54;22.07;;;7.70;;
3601;SDS011;1815;50.950;6.920;2024-01-25T12:01:22;22.47;;;7.27;;
3601;SDS011;1815;50.950;6.920;2024-01-25T12:03:52;21.80;;;6.73;;
3601;SDS011;1815;50.950;6.920;2024-01-25T12:06:19;22.37;;;6.60;;
3601;SDS011;1815;50.950;6.920;2024-01-25T12:08:45;23.97;;;6.53;;
3601;SDS011;1815;50.950;6.920;2024-01-25T12:11:13;22.03;;;5.97;;
3601;SDS011;1815;50.950;6.920;2024-01-25T12:13:39;20.07;;;7.40;;
3601;SDS011;1815;50.950;6.920;2024-01-25T12:16:07;17.73;;;6.70;;
3601;SDS011;1815;50.950;6.920;2024-01-25T12:18:34;20.30;;;5.50;;
3601;SDS011;1815;50.950;6.920;2024-01-25T12:21:03;16.33;;;5.50;;
3601;SDS011;1815;50.950;6.920;2024-01-25T12:23:30;17.30;;;6.30;;
3601;SDS011;1815;50.950;6.920;2024-01-25T12:25:58;19.70;;;5.90;;
3601;SDS011;1815;50.950;6.920;2024-01-25T12:28:29;21.80;;;5.70;;
3601;SDS011;1815;50.950;6.920;2024-01-25T12:30:56;18.77;;;5.87;;
3601;SDS011;1815;50.950;6.920;2024-01-25T12:33:22;18.37;;;4.67;;
3601;SDS011;1815;50.950;6.920;2024-01-25T12:35:47;13.53;;;5.60;;
3601;SDS011;1815;50.950;6.920;2024-01-25T12:38:13;20.63;;;6.80;;
3601;SDS011;1815;50.950;6.920;2024-01-25T12:40:40;13.40;;;4.10;;
3601;SDS011;1815;50.950;6.920;2024-01-25T12:43:07;21.60;;;6.00;;
3601;SDS011;1815;50.950;6.920;2024-01-25T12:45:33;19.50;;;5.80;;
3601;SDS011;1815;50.950;6.920;2024-01-25T12:47:59;19.97;;;6.00;;
3601;SDS011;1815;50.950;6.920;2024-01-25T12:50:25;15.63;;;5.63;;
3601;SDS011;1815;50.950;6.920;2024-01-25T12:52:50;18.70;;;5.20;;
3601;SDS011;1815;50.950;6.920;2024-01-25T12:55:16;18.73;;;6.23;;
3601;SDS011;1815;50.950;6.920;2024-01-25T12:57:42;15.53;;;5.80;;
3601;SDS011;1815;50.950;6.920;2024-01-25T13:00:08;19.00;;;5.80;;
3601;SDS011;1815;50.950;6.920;2024-01-25T13:02:33;12.40;;;5.20;;
3601;SDS011;1815;50.950;6.920;2024-01-25T13:04:59;24.20;;;5.77;;
3601;SDS011;1815;50.950;6.920;2024-01-25T13:07:26;13.93;;;4.07;;
3601;SDS011;1815;50.950;6.920;2024-01-25T13:09:51;12.53;;;4.23;;
3601;SDS011;1815;50.950;6.920;2024-01-25T13:12:17;16.10;;;5.10;;
3601;SDS011;1815;50.950;6.920;2024-01-25T13:14:43;12.90;;;4.73;;
3601;SDS011;1815;50.950;6.920;2024-01-25T13:17:08;13.97;;;4.40;;
3601;SDS011;1815;50.950;6.920;2024-01-25T13:19:34;15.90;;;4.90;;
3601;SDS011;1815;50.950;6.920;2024-01-25T13:22:00;16.97;;;4.80;;
3601;SDS011;1815;50.950;6.920;2024-01-25T13:24:26;9.60;;;3.37;;
3601;SDS011;1815;50.950;6.920;2024-01-25T13:26:51;12.33;;;4.13;;
3601;SDS011;1815;50.950;6.920;2024-01-25T13:29:17;16.30;;;4.17;;
3601;SDS011;1815;50.950;6.920;2024-01-25T13:31:43;12.97;;;3.87;;
3601;SDS011;1815;50.950;6.920;2024-01-25T13:34:08;14.27;;;4.20;;
3601;SDS011;1815;50.950;6.920;2024-01-25T13:36:34;16.53;;;3.80;;
3601;SDS011;1815;50.950;6.920;2024-01-25T13:39:01;15.13;;;3.40;;
3601;SDS011;1815;50.950;6.920;2024-01-25T13:41:28;14.00;;;5.00;;
3601;SDS011;1815;50.950;6.920;2024-01-25T13:43:54;15.00;;;5.80;;
3601;SDS011;1815;50.950;6.920;2024-01-25T13:46:20;15.37;;;4.13;;
3601;SDS011;1815;50.950;6.920;2024-01-25T13:48:45;20.47;;;4.77;;
3601;SDS011;1815;50.950;6.920;2024-01-25T13:51:12;13.83;;;4.30;;
3601;SDS011;1815;50.950;6.920;2024-01-25T13:53:37;14.63;;;4.20;;
3601;SDS011;1815;50.950;6.920;2024-01-25T13:56:03;7.50;;;3.10;;
3601;SDS011;1815;50.950;6.920;2024-01-25T13:58:29;15.23;;;4.30;;
3601;SDS011;1815;50.950;6.920;2024-01-25T14:00:55;16.90;;;4.67;;
3601;SDS011;1815;50.950;6.920;2024-01-25T14:03:20;12.30;;;3.87;;
3601;SDS011;1815;50.950;6.920;2024-01-25T14:05:46;16.50;;;4.17;;
3601;SDS011;1815;50.950;6.920;2024-01-25T14:08:12;15.07;;;4.30;;
3601;SDS011;1815;50.950;6.920;2024-01-25T14:10:37;17.23;;;4.93;;
3601;SDS011;1815;50.950;6.920;2024-01-25T14:13:03;16.20;;;5.10;;
3601;SDS011;1815;50.950;6.920;2024-01-25T14:15:29;10.40;;;3.27;;
3601;SDS011;1815;50.950;6.920;2024-01-25T14:17:55;13.87;;;5.43;;
3601;SDS011;1815;50.950;6.920;2024-01-25T14:20:20;12.43;;;3.90;;
3601;SDS011;1815;50.950;6.920;2024-01-25T14:22:47;13.83;;;4.03;;
3601;SDS011;1815;50.950;6.920;2024-01-25T14:25:13;13.67;;;5.07;;
3601;SDS011;1815;50.950;6.920;2024-01-25T14:27:39;15.57;;;4.70;;
3601;SDS011;1815;50.950;6.920;2024-01-25T14:30:05;21.07;;;4.90;;
3601;SDS011;1815;50.950;6.920;2024-01-25T14:32:32;14.03;;;4.73;;
3601;SDS011;1815;50.950;6.920;2024-01-25T14:34:58;12.23;;;3.27;;
3601;SDS011;1815;50.950;6.920;2024-01-25T14:37:23;13.43;;;3.97;;
3601;SDS011;1815;50.950;6.920;2024-01-25T14:39:49;10.17;;;3.20;;
3601;SDS011;1815;50.950;6.920;2024-01-25T14:42:15;15.10;;;3.97;;
3601;SDS011;1815;50.950;6.920;2024-01-25T14:44:44;16.00;;;4.30;;
3601;SDS011;1815;50.950;6.920;2024-01-25T14:47:10;16.77;;;3.80;;
3601;SDS011;1815;50.950;6.920;2024-01-25T14:49:37;10.33;;;3.80;;
3601;SDS011;1815;50.950;6.920;2024-01-25T14:52:03;14.50;;;3.73;;
3601;SDS011;1815;50.950;6.920;2024-01-25T14:54:29;13.27;;;3.97;;